Time;durP1;ratioP1;P1;durP2;ratioP2;P2;SDS_P1;SDS_P2;PMS_P1;PMS_P2;Temp;Humidity;BMP_temperature;BMP_pressure;BME280_temperature;BME280_humidity;BME280_pressure;Samples;Min_cycle;Max_cycle;Signal;HPM_P1;HPM_P2
2023/08/03 00:00:21;;;;;;;4.00;1.33;;;16.80;99.90;;;;;;4998020;28;20307;-94
2023/08/03 00:02:48;;;;;;;5.82;1.30;;;16.80;99.90;;;;;;4997440;28;20282;-94
2023/08/03 00:05:17;;;;;;;5.55;1.60;;;16.80;99.90;;;;;;4998294;28;20203;-94
2023/08/03 00:07:44;;;;;;;5.88;1.85;;;16.80;99.90;;;;;;4997442;28;20639;-94
2023/08/03 00:10:29;;;;;;;5.30;1.45;;;16.80;99.90;;;;;;4998266;28;20184;-93
2023/08/03 00:12:54;;;;;;;6.15;1.75;;;16.70;99.90;;;;;;4998469;28;20183;-96
2023/08/03 00:15:28;;;;;;;7.13;1.67;;;16.70;99.90;;;;;;4995134;28;20180;-96
2023/08/03 00:17:54;;;;;;;5.95;1.58;;;16.70;99.90;;;;;;4981125;28;20184;-95
2023/08/03 00:20:28;;;;;;;4.25;1.20;;;16.70;99.90;;;;;;4984042;28;20181;-94
2023/08/03 00:22:53;;;;;;;6.30;1.58;;;16.70;99.90;;;;;;4970174;28;20210;-96
2023/08/03 00:25:19;;;;;;;7.05;1.52;;;16.70;99.90;;;;;;4984890;28;20192;-96
2023/08/03 00:27:45;;;;;;;5.13;1.63;;;16.70;99.90;;;;;;4983668;28;20275;-96
2023/08/03 00:30:11;;;;;;;4.82;1.80;;;16.70;99.90;;;;;;4987808;28;20679;-95
2023/08/03 00:32:36;;;;;;;3.03;1.45;;;16.60;99.90;;;;;;4982734;28;20184;-96
2023/08/03 00:35:02;;;;;;;2.65;1.10;;;16.60;99.90;;;;;;4983746;28;20574;-96
2023/08/03 00:37:29;;;;;;;4.82;1.40;;;16.50;99.90;;;;;;4967170;28;20184;-96
2023/08/03 00:40:02;;;;;;;7.07;1.27;;;16.50;99.90;;;;;;4983411;28;20318;-95
2023/08/03 00:42:29;;;;;;;3.58;1.35;;;16.50;99.90;;;;;;4980824;28;20208;-96
2023/08/03 00:44:55;;;;;;;8.77;1.70;;;16.50;99.90;;;;;;4988708;28;20248;-96
2023/08/03 00:47:21;;;;;;;6.70;1.63;;;16.50;99.90;;;;;;5007540;28;20208;-96
2023/08/03 00:50:09;;;;;;;8.98;1.85;;;16.40;99.90;;;;;;5004554;28;20179;-96
2023/08/03 00:52:43;;;;;;;11.43;1.70;;;16.40;99.90;;;;;;5007386;28;20172;-96
2023/08/03 00:55:09;;;;;;;6.00;1.50;;;16.40;99.90;;;;;;4986396;28;20275;-96
2023/08/03 00:57:35;;;;;;;6.43;1.40;;;16.40;99.90;;;;;;5001528;28;20215;-96
2023/08/03 01:00:02;;;;;;;7.20;1.67;;;16.40;99.90;;;;;;5004633;28;20180;-96
2023/08/03 01:02:28;;;;;;;5.32;1.35;;;16.40;99.90;;;;;;4986416;28;20223;-96
2023/08/03 01:04:53;;;;;;;7.15;1.20;;;16.40;99.90;;;;;;5000435;28;20176;-96
2023/08/03 01:07:21;;;;;;;3.75;1.02;;;16.40;99.90;;;;;;4999727;28;20180;-96
2023/08/03 01:09:49;;;;;;;8.88;1.52;;;16.40;99.90;;;;;;5000015;28;20172;-96
2023/08/03 01:12:16;;;;;;;4.80;1.13;;;16.30;99.90;;;;;;5001987;28;20180;-96
2023/08/03 01:14:43;;;;;;;5.25;1.10;;;16.30;99.90;;;;;;5002701;28;20184;-96
2023/08/03 01:17:09;;;;;;;4.10;1.20;;;16.40;99.90;;;;;;5003734;28;20191;-96
2023/08/03 01:19:46;;;;;;;7.70;1.40;;;16.40;99.90;;;;;;5004074;28;20180;-96
2023/08/03 01:22:13;;;;;;;10.15;1.10;;;16.40;99.90;;;;;;5003425;28;20199;-96
2023/08/03 01:24:39;;;;;;;5.82;1.55;;;16.40;99.90;;;;;;5000984;28;20611;-96
2023/08/03 01:27:06;;;;;;;7.95;1.35;;;16.40;99.90;;;;;;5016840;28;20683;-96
2023/08/03 01:29:32;;;;;;;5.55;1.25;;;16.40;99.90;;;;;;5040227;28;20178;-96
2023/08/03 01:32:00;;;;;;;8.77;1.40;;;16.40;99.90;;;;;;5040652;28;20218;-96
2023/08/03 01:34:30;;;;;;;3.78;1.08;;;16.40;99.90;;;;;;5038673;28;20181;-93
2023/08/03 01:36:56;;;;;;;6.50;1.10;;;16.30;99.90;;;;;;5038018;28;20237;-96
2023/08/03 01:44:30;;;;;;;4.05;1.20;;;16.20;99.90;;;;;;5015137;28;20720;-93
2023/08/03 01:46:58;;;;;;;6.07;1.15;;;16.20;99.90;;;;;;5015156;28;20179;-94
2023/08/03 01:49:29;;;;;;;5.45;1.17;;;16.30;99.90;;;;;;5015696;28;20175;-92
2023/08/03 01:52:04;;;;;;;5.38;1.30;;;16.30;99.90;;;;;;5014720;28;20172;-91
2023/08/03 01:54:29;;;;;;;4.63;1.05;;;16.30;99.90;;;;;;5031522;28;20183;-95
2023/08/03 01:56:55;;;;;;;4.20;1.30;;;16.30;99.90;;;;;;5016502;28;20171;-95
2023/08/03 01:59:21;;;;;;;5.82;1.30;;;16.30;99.90;;;;;;5015321;28;20229;-95
2023/08/03 02:02:02;;;;;;;7.45;1.35;;;16.30;99.90;;;;;;5014544;28;20302;-96
2023/08/03 02:04:28;;;;;;;6.22;1.27;;;16.30;99.90;;;;;;5014914;28;20218;-95
2023/08/03 02:06:56;;;;;;;6.00;1.33;;;16.30;99.90;;;;;;5015361;28;20198;-94
2023/08/03 02:09:22;;;;;;;5.80;1.27;;;16.30;99.90;;;;;;5014748;28;20202;-96
2023/08/03 02:11:53;;;;;;;4.90;1.27;;;16.30;99.90;;;;;;5014060;28;20219;-92
2023/08/03 02:14:19;;;;;;;13.57;1.25;;;16.20;99.90;;;;;;5014934;28;20258;-94
2023/08/03 02:16:44;;;;;;;10.40;1.52;;;16.20;99.90;;;;;;5015019;28;20625;-96
2023/08/03 02:19:10;;;;;;;5.10;1.20;;;16.20;99.90;;;;;;5014223;28;20182;-93
2023/08/03 02:21:36;;;;;;;3.65;1.27;;;16.20;99.90;;;;;;5014610;28;20222;-92
2023/08/03 02:24:02;;;;;;;5.32;1.40;;;16.20;99.90;;;;;;5014692;28;20315;-93
2023/08/03 02:26:27;;;;;;;3.42;1.42;;;16.20;99.90;;;;;;5015394;28;20178;-92
2023/08/03 02:28:53;;;;;;;11.27;1.38;;;16.20;99.90;;;;;;5014527;28;20171;-92
2023/08/03 02:31:19;;;;;;;7.85;1.48;;;16.30;99.90;;;;;;5014735;28;20187;-94
2023/08/03 02:33:45;;;;;;;7.40;1.38;;;16.30;99.90;;;;;;5014675;28;20190;-95
2023/08/03 02:36:10;;;;;;;3.50;1.05;;;16.40;99.90;;;;;;5014947;28;20229;-94
2023/08/03 02:38:36;;;;;;;4.07;1.10;;;16.40;99.90;;;;;;5014176;28;20183;-95
2023/08/03 02:41:02;;;;;;;4.85;1.40;;;16.50;99.90;;;;;;5013789;28;20207;-95
2023/08/03 02:43:27;;;;;;;7.25;1.40;;;16.40;99.90;;;;;;5013980;28;20231;-95
2023/08/03 02:45:53;;;;;;;3.83;1.23;;;16.50;99.90;;;;;;5014095;28;20187;-95
2023/08/03 02:48:19;;;;;;;4.63;1.25;;;16.40;99.90;;;;;;5014127;28;20298;-92
2023/08/03 02:50:45;;;;;;;7.97;1.95;;;16.30;99.90;;;;;;5013758;28;20677;-92
2023/08/03 02:53:15;;;;;;;6.95;1.17;;;16.30;99.90;;;;;;5013920;28;20226;-93
2023/08/03 02:55:41;;;;;;;5.88;1.80;;;16.20;99.90;;;;;;5013833;28;20183;-92
2023/08/03 02:58:06;;;;;;;7.63;1.50;;;16.30;99.90;;;;;;5014086;28;20614;-93
2023/08/03 03:00:32;;;;;;;12.00;1.90;;;16.20;99.90;;;;;;5017295;28;20606;-91
2023/08/03 03:02:59;;;;;;;7.15;1.55;;;16.20;99.90;;;;;;5017771;28;20175;-93
2023/08/03 03:05:24;;;;;;;10.23;1.80;;;16.30;99.90;;;;;;5017736;28;20168;-95
2023/08/03 03:07:50;;;;;;;9.82;1.73;;;16.40;99.90;;;;;;5017568;28;20205;-94
2023/08/03 03:10:16;;;;;;;10.65;1.50;;;16.40;99.90;;;;;;5017229;28;20560;-94
2023/08/03 03:12:48;;;;;;;4.78;1.40;;;16.40;99.90;;;;;;5017762;28;20187;-96
2023/08/03 03:15:13;;;;;;;7.97;1.50;;;16.50;99.90;;;;;;5017566;28;20229;-93
2023/08/03 03:17:42;;;;;;;6.03;1.25;;;16.50;99.90;;;;;;5017430;28;20180;-88
2023/08/03 03:20:08;;;;;;;6.53;1.33;;;16.50;99.90;;;;;;5017411;28;20222;-89
2023/08/03 03:22:35;;;;;;;6.30;1.27;;;16.60;99.90;;;;;;5017008;28;20217;-93
2023/08/03 03:25:05;;;;;;;4.25;1.13;;;16.60;99.90;;;;;;5018180;28;20542;-90
2023/08/03 03:27:31;;;;;;;7.75;1.60;;;16.70;99.90;;;;;;5017206;28;20194;-94
2023/08/03 03:29:57;;;;;;;4.50;1.30;;;16.70;99.90;;;;;;5016994;28;20171;-94
2023/08/03 03:32:23;;;;;;;4.10;1.38;;;16.70;99.90;;;;;;5016780;28;20246;-91
2023/08/03 03:34:48;;;;;;;4.07;1.10;;;16.80;99.90;;;;;;5016893;28;20317;-90
2023/08/03 03:37:14;;;;;;;5.53;1.30;;;16.80;99.90;;;;;;5017144;28;20245;-90
2023/08/03 03:39:40;;;;;;;8.52;2.00;;;16.80;99.90;;;;;;5017864;28;20179;-91
2023/08/03 03:42:06;;;;;;;4.00;1.02;;;16.80;99.90;;;;;;5017512;28;20649;-91
2023/08/03 03:44:34;;;;;;;5.22;1.30;;;16.80;99.90;;;;;;5017743;28;20265;-93
2023/08/03 03:47:00;;;;;;;3.85;1.08;;;16.70;99.90;;;;;;5016685;28;20525;-88
2023/08/03 03:49:26;;;;;;;4.28;1.25;;;16.80;99.90;;;;;;5016625;28;20179;-89
2023/08/03 03:51:52;;;;;;;8.88;1.30;;;16.80;99.90;;;;;;5017620;28;20171;-92
2023/08/03 03:54:25;;;;;;;4.10;1.00;;;16.80;99.90;;;;;;5017595;28;20530;-92
2023/08/03 03:56:51;;;;;;;4.30;1.13;;;16.70;99.90;;;;;;5016680;28;20230;-92
2023/08/03 03:59:17;;;;;;;4.93;0.82;;;16.70;99.90;;;;;;5016529;28;20187;-89
2023/08/03 04:01:42;;;;;;;4.18;1.10;;;16.70;99.90;;;;;;5016242;28;20219;-91
2023/08/03 04:04:10;;;;;;;5.70;1.20;;;16.60;99.90;;;;;;5016408;28;20582;-89
2023/08/03 04:06:37;;;;;;;7.03;1.05;;;16.60;99.90;;;;;;5016457;28;20206;-85
2023/08/03 04:09:03;;;;;;;4.97;1.52;;;16.60;99.90;;;;;;5016165;28;20186;-91
2023/08/03 04:11:29;;;;;;;4.45;1.15;;;16.60;99.90;;;;;;5015064;28;20187;-89
2023/08/03 04:13:58;;;;;;;5.75;1.10;;;16.60;99.90;;;;;;5015915;28;20199;-88
2023/08/03 04:16:24;;;;;;;4.38;0.90;;;16.60;99.90;;;;;;5016104;28;20179;-89
2023/08/03 04:18:50;;;;;;;3.92;1.10;;;16.70;99.90;;;;;;5016082;28;20230;-83
2023/08/03 04:21:16;;;;;;;1.90;0.80;;;16.70;99.90;;;;;;5015734;28;20202;-86
2023/08/03 04:23:43;;;;;;;5.95;1.00;;;16.60;99.90;;;;;;5015818;28;20265;-88
2023/08/03 04:26:09;;;;;;;6.30;1.05;;;16.60;99.90;;;;;;5015682;28;20179;-86
2023/08/03 04:28:35;;;;;;;6.38;0.80;;;16.70;99.90;;;;;;5015714;28;20187;-84
2023/08/03 04:31:01;;;;;;;5.90;1.05;;;16.80;99.90;;;;;;5016832;28;20479;-85
2023/08/03 04:33:29;;;;;;;6.30;1.65;;;16.80;99.90;;;;;;5015639;28;20179;-87
2023/08/03 04:35:55;;;;;;;3.30;0.93;;;16.80;99.90;;;;;;5015687;28;20172;-86
2023/08/03 04:38:20;;;;;;;6.15;1.42;;;16.90;99.90;;;;;;5015578;28;20242;-88
2023/08/03 04:40:46;;;;;;;4.88;1.17;;;16.90;99.90;;;;;;5015185;28;20270;-84
2023/08/03 04:43:12;;;;;;;4.32;1.30;;;17.00;99.90;;;;;;5015318;28;20223;-89
2023/08/03 04:45:37;;;;;;;2.95;1.25;;;17.00;99.90;;;;;;5016384;28;20542;-86
2023/08/03 04:48:03;;;;;;;2.97;0.98;;;17.10;99.90;;;;;;5031837;28;20187;-89
2023/08/03 04:50:29;;;;;;;5.60;0.90;;;17.00;99.90;;;;;;5016347;28;20637;-88
2023/08/03 04:52:57;;;;;;;5.18;1.10;;;17.10;99.90;;;;;;5015196;28;20890;-87
2023/08/03 04:55:22;;;;;;;4.57;0.80;;;17.10;99.90;;;;;;5015996;28;20250;-86
2023/08/03 04:57:48;;;;;;;3.78;1.10;;;17.10;99.90;;;;;;5031615;28;20294;-87
2023/08/03 05:00:14;;;;;;;1.88;0.70;;;17.10;99.90;;;;;;5031300;28;20191;-87
2023/08/03 05:02:40;;;;;;;7.70;1.00;;;17.10;99.90;;;;;;5028096;28;20245;-87
2023/08/03 05:05:07;;;;;;;4.10;0.85;;;17.00;99.90;;;;;;5030915;28;20258;-87
2023/08/03 05:07:32;;;;;;;4.38;1.00;;;17.00;99.90;;;;;;5014338;28;20175;-89
2023/08/03 05:09:58;;;;;;;2.90;0.88;;;17.00;99.90;;;;;;5031074;28;20232;-86
2023/08/03 05:12:24;;;;;;;4.07;0.90;;;17.00;99.90;;;;;;5030596;28;20520;-91
2023/08/03 05:14:51;;;;;;;3.22;0.85;;;17.10;99.90;;;;;;5031116;28;20187;-89
2023/08/03 05:17:17;;;;;;;6.13;0.85;;;17.20;99.90;;;;;;5031512;28;20508;-87
2023/08/03 05:19:43;;;;;;;4.45;0.80;;;17.20;99.90;;;;;;5031247;28;20183;-87
2023/08/03 05:22:08;;;;;;;2.20;0.75;;;17.20;99.90;;;;;;5031165;28;20207;-88
2023/08/03 05:24:34;;;;;;;3.90;0.80;;;17.30;99.90;;;;;;5031266;28;20249;-88
2023/08/03 05:27:01;;;;;;;3.25;0.80;;;17.30;99.90;;;;;;5031162;28;20183;-89
2023/08/03 05:29:27;;;;;;;2.75;0.52;;;17.30;99.90;;;;;;5014866;28;20261;-88
2023/08/03 05:31:52;;;;;;;1.85;0.93;;;17.30;99.90;;;;;;5031020;28;20622;-88
2023/08/03 05:34:19;;;;;;;2.65;0.60;;;17.30;99.90;;;;;;5030998;28;20182;-87
2023/08/03 05:36:45;;;;;;;1.80;0.70;;;17.30;99.90;;;;;;5015774;28;20590;-89
2023/08/03 05:39:11;;;;;;;4.35;0.60;;;17.30;99.90;;;;;;5031125;28;20175;-92
2023/08/03 05:41:36;;;;;;;5.15;0.82;;;17.30;99.90;;;;;;5030984;28;20207;-86
2023/08/03 05:44:02;;;;;;;1.45;0.52;;;17.20;99.90;;;;;;5030789;28;20321;-91
2023/08/03 05:46:32;;;;;;;3.28;0.63;;;17.10;99.90;;;;;;5030456;28;20262;-89
2023/08/03 05:48:58;;;;;;;2.45;0.80;;;17.10;99.90;;;;;;5030303;28;20187;-87
2023/08/03 05:51:28;;;;;;;5.47;0.90;;;17.00;99.90;;;;;;5030253;28;20496;-87
2023/08/03 05:53:56;;;;;;;3.10;0.73;;;17.10;99.90;;;;;;5030670;28;20248;-90
2023/08/03 05:56:23;;;;;;;3.42;0.77;;;17.10;99.90;;;;;;5013329;28;20253;-87
2023/08/03 05:58:50;;;;;;;2.60;0.80;;;17.10;99.90;;;;;;5014453;28;20229;-88
2023/08/03 06:01:21;;;;;;;1.92;0.70;;;17.10;99.90;;;;;;5013755;28;20304;-87
2023/08/03 06:03:47;;;;;;;1.40;0.50;;;17.10;99.90;;;;;;5010694;28;20627;-87
2023/08/03 06:06:18;;;;;;;4.22;0.70;;;17.20;99.90;;;;;;4994391;28;20172;-88
2023/08/03 06:08:53;;;;;;;2.42;0.60;;;17.30;99.90;;;;;;5008087;28;20618;-86
2023/08/03 06:11:20;;;;;;;2.10;0.90;;;17.30;99.90;;;;;;5013439;28;20210;-90
2023/08/03 06:13:48;;;;;;;1.85;0.52;;;17.30;99.90;;;;;;5013331;28;20179;-90
2023/08/03 06:16:15;;;;;;;3.60;0.60;;;17.30;99.90;;;;;;5000648;28;20598;-87
2023/08/03 06:18:45;;;;;;;3.97;0.50;;;17.30;99.90;;;;;;4994363;28;20184;-89
2023/08/03 06:21:13;;;;;;;3.53;0.75;;;17.30;99.90;;;;;;5001039;28;20215;-89
2023/08/03 06:23:40;;;;;;;2.30;0.82;;;17.30;99.90;;;;;;5014202;28;20175;-88
2023/08/03 06:26:11;;;;;;;1.77;0.73;;;17.20;99.90;;;;;;5009367;28;20187;-88
2023/08/03 06:28:37;;;;;;;2.25;0.70;;;17.20;99.90;;;;;;4994547;28;20176;-86
2023/08/03 06:31:13;;;;;;;2.30;0.82;;;17.20;99.90;;;;;;4997278;28;20186;-85
2023/08/03 06:33:39;;;;;;;2.30;0.68;;;17.10;99.90;;;;;;5014260;28;20237;-92
2023/08/03 06:36:35;;;;;;;3.47;0.70;;;17.20;99.90;;;;;;5016987;28;20552;-88
2023/08/03 06:39:00;;;;;;;2.83;0.73;;;17.10;99.90;;;;;;4986207;28;20242;-91
2023/08/03 06:41:27;;;;;;;3.70;0.68;;;17.20;99.90;;;;;;5000065;28;20211;-92
2023/08/03 06:44:00;;;;;;;3.45;1.00;;;17.20;99.90;;;;;;5017606;28;20290;-91
2023/08/03 06:46:40;;;;;;;2.17;0.70;;;17.30;99.90;;;;;;5017716;28;20175;-88
2023/08/03 06:49:06;;;;;;;3.60;0.70;;;17.40;99.90;;;;;;5034213;28;20182;-89
2023/08/03 06:51:32;;;;;;;2.75;0.50;;;17.40;99.90;;;;;;5033910;28;20175;-94
2023/08/03 06:53:59;;;;;;;2.20;0.88;;;17.40;99.90;;;;;;5014247;28;20180;-91
2023/08/03 06:56:31;;;;;;;4.72;0.80;;;17.50;99.90;;;;;;4997969;28;20183;-88
2023/08/03 06:58:57;;;;;;;3.33;1.13;;;17.50;99.90;;;;;;5015301;28;20221;-89
2023/08/03 07:01:23;;;;;;;2.55;0.63;;;17.60;99.90;;;;;;5018380;28;20650;-87
2023/08/03 07:03:50;;;;;;;2.75;0.63;;;17.70;99.90;;;;;;5017937;28;20184;-90
2023/08/03 07:06:23;;;;;;;1.98;0.63;;;17.70;99.90;;;;;;5017340;28;20183;-90
2023/08/03 07:08:50;;;;;;;2.03;0.80;;;17.60;99.90;;;;;;5001203;28;20183;-90
2023/08/03 07:11:15;;;;;;;1.48;0.70;;;17.70;99.90;;;;;;4998834;28;20175;-86
2023/08/03 07:13:41;;;;;;;2.55;0.63;;;17.80;99.90;;;;;;4997319;28;20187;-88
2023/08/03 07:16:08;;;;;;;4.10;0.65;;;17.90;99.90;;;;;;5013698;28;20261;-89
2023/08/03 07:18:34;;;;;;;1.10;0.57;;;17.90;99.90;;;;;;5016887;28;20233;-91
2023/08/03 07:21:04;;;;;;;5.15;0.73;;;17.90;99.90;;;;;;5016927;28;20219;-89
2023/08/03 07:23:30;;;;;;;2.00;0.80;;;17.90;99.90;;;;;;5016422;28;20499;-91
2023/08/03 07:25:58;;;;;;;1.90;0.70;;;17.80;99.90;;;;;;5016082;28;20190;-88
2023/08/03 07:28:23;;;;;;;3.25;0.88;;;17.70;99.90;;;;;;5017482;28;20516;-91
2023/08/03 07:30:49;;;;;;;3.08;0.98;;;17.70;99.90;;;;;;5015181;28;20183;-90
2023/08/03 07:33:15;;;;;;;3.03;0.70;;;17.70;99.90;;;;;;4997040;28;20183;-90
2023/08/03 07:35:43;;;;;;;6.00;0.63;;;17.70;99.90;;;;;;4997967;28;20631;-88
2023/08/03 07:38:08;;;;;;;2.55;0.70;;;17.70;99.90;;;;;;4997356;28;20180;-91
2023/08/03 07:40:34;;;;;;;2.20;0.60;;;17.70;99.90;;;;;;4996989;28;20198;-89
2023/08/03 07:43:00;;;;;;;1.40;0.68;;;17.70;99.90;;;;;;5012980;28;20236;-87
2023/08/03 07:45:27;;;;;;;1.63;0.70;;;17.80;99.90;;;;;;4996679;28;20172;-88
2023/08/03 07:47:53;;;;;;;2.70;0.60;;;17.90;99.90;;;;;;5010247;28;20636;-90
2023/08/03 07:50:19;;;;;;;1.50;0.80;;;18.00;99.90;;;;;;5016217;28;20176;-86
2023/08/03 07:52:44;;;;;;;2.38;0.65;;;18.00;99.90;;;;;;5017366;28;20195;-89
2023/08/03 07:55:10;;;;;;;2.80;0.68;;;18.10;99.90;;;;;;5015969;28;20230;-87
2023/08/03 07:57:38;;;;;;;3.63;0.80;;;18.10;99.90;;;;;;5017109;28;20167;-88
2023/08/03 08:00:04;;;;;;;1.73;0.55;;;18.10;99.90;;;;;;5016044;28;20171;-86
2023/08/03 08:02:30;;;;;;;2.33;0.70;;;18.10;99.90;;;;;;5015472;28;20226;-89
2023/08/03 08:04:56;;;;;;;3.28;0.90;;;18.00;99.90;;;;;;5016779;28;20226;-90
2023/08/03 08:07:28;;;;;;;2.25;0.68;;;18.00;99.90;;;;;;5016208;28;20206;-92
2023/08/03 08:09:54;;;;;;;2.20;0.60;;;17.90;99.90;;;;;;5015825;28;20210;-91
2023/08/03 08:12:19;;;;;;;2.03;0.60;;;17.90;99.90;;;;;;5015966;28;20179;-86
2023/08/03 08:14:45;;;;;;;3.83;0.60;;;17.80;99.90;;;;;;5016194;28;20181;-90
2023/08/03 08:17:14;;;;;;;1.13;0.60;;;17.80;99.90;;;;;;5015745;28;20180;-92
2023/08/03 08:19:41;;;;;;;2.05;0.75;;;17.90;99.90;;;;;;5013793;28;20175;-92
2023/08/03 08:22:11;;;;;;;1.55;0.70;;;17.90;99.90;;;;;;4997358;28;20214;-95
2023/08/03 08:24:37;;;;;;;3.50;0.70;;;17.90;99.90;;;;;;4996260;28;20176;-93
2023/08/03 08:27:05;;;;;;;2.72;0.60;;;17.90;99.90;;;;;;4997262;28;20234;-94
2023/08/03 08:29:31;;;;;;;0.68;0.40;;;18.00;99.90;;;;;;4997042;28;20168;-91
2023/08/03 08:31:56;;;;;;;2.00;0.43;;;18.10;99.90;;;;;;4995913;28;20203;-87
2023/08/03 08:34:22;;;;;;;0.82;0.40;;;18.20;99.90;;;;;;4996006;28;20190;-95
2023/08/03 08:36:55;;;;;;;2.10;0.40;;;18.20;99.90;;;;;;4996059;28;20183;-93
2023/08/03 08:39:21;;;;;;;0.88;0.47;;;18.30;99.90;;;;;;4996099;28;20176;-94
2023/08/03 08:41:47;;;;;;;2.88;0.60;;;18.30;99.90;;;;;;4995859;28;20227;-92
2023/08/03 08:44:14;;;;;;;5.13;0.50;;;18.40;99.90;;;;;;4995563;28;20223;-91
2023/08/03 08:46:42;;;;;;;3.45;0.43;;;18.50;99.90;;;;;;5012384;28;20225;-92
2023/08/03 08:49:08;;;;;;;0.93;0.55;;;18.50;99.90;;;;;;5016284;28;20174;-89
2023/08/03 08:51:35;;;;;;;0.98;0.60;;;18.50;99.90;;;;;;5015404;28;20176;-95
2023/08/03 08:54:01;;;;;;;3.90;0.82;;;18.50;99.90;;;;;;5015375;28;20187;-94
2023/08/03 08:56:27;;;;;;;1.55;0.60;;;18.30;99.90;;;;;;5014970;28;20823;-94
2023/08/03 08:58:52;;;;;;;1.02;0.60;;;18.20;99.90;;;;;;5005261;28;20199;-94
2023/08/03 09:01:18;;;;;;;1.08;0.60;;;18.10;99.90;;;;;;4995079;28;20216;-91
2023/08/03 09:03:52;;;;;;;1.55;0.52;;;18.00;99.90;;;;;;4996508;28;20176;-95
2023/08/03 09:06:21;;;;;;;1.75;0.60;;;18.00;99.90;;;;;;4996015;28;20607;-95
2023/08/03 09:08:58;;;;;;;0.82;0.50;;;17.90;99.90;;;;;;4995570;28;20630;-93
2023/08/03 09:11:40;;;;;;;1.08;0.60;;;17.90;99.90;;;;;;4995775;28;20167;-93
2023/08/03 09:14:07;;;;;;;2.25;0.60;;;17.80;99.90;;;;;;4995487;28;20633;-95
2023/08/03 09:16:33;;;;;;;3.88;0.43;;;17.90;99.90;;;;;;4995116;28;20180;-92
2023/08/03 09:19:01;;;;;;;3.08;0.57;;;18.00;99.90;;;;;;4995014;28;20218;-90
2023/08/03 09:21:27;;;;;;;1.50;0.60;;;18.00;99.90;;;;;;4994930;28;20231;-91
2023/08/03 09:23:55;;;;;;;2.63;0.50;;;18.10;99.90;;;;;;4995087;28;20180;-95
2023/08/03 09:26:24;;;;;;;2.70;0.50;;;18.50;99.90;;;;;;4995017;28;20304;-90
2023/08/03 09:28:51;;;;;;;0.40;0.40;;;18.90;99.90;;;;;;5005145;28;20195;-87
2023/08/03 09:31:23;;;;;;;2.53;0.40;;;19.10;99.90;;;;;;5014210;28;20178;-91
2023/08/03 09:33:57;;;;;;;3.05;0.40;;;19.30;99.90;;;;;;5015814;28;20218;-90
2023/08/03 09:36:22;;;;;;;1.90;0.50;;;19.60;99.90;;;;;;5014497;28;20171;-93
2023/08/03 09:38:48;;;;;;;0.75;0.40;;;19.90;99.90;;;;;;5014465;28;20183;-91
2023/08/03 09:41:31;;;;;;;2.55;0.30;;;20.10;99.90;;;;;;5014440;28;20211;-92
2023/08/03 09:43:58;;;;;;;1.73;0.40;;;20.30;99.90;;;;;;5015377;28;20235;-91
2023/08/03 09:46:25;;;;;;;1.58;0.40;;;20.50;99.90;;;;;;5014105;28;20241;-91
2023/08/03 09:48:51;;;;;;;0.80;0.40;;;20.40;99.90;;;;;;5014439;28;20185;-89
2023/08/03 09:51:19;;;;;;;0.20;0.20;;;20.20;99.90;;;;;;5014322;28;20171;-88
2023/08/03 09:53:50;;;;;;;1.50;0.40;;;19.90;99.90;;;;;;5014840;28;20606;-93
2023/08/03 09:56:24;;;;;;;1.90;0.30;;;19.70;99.90;;;;;;5014213;28;20175;-89
2023/08/03 09:59:06;;;;;;;0.88;0.47;;;19.60;99.90;;;;;;5004140;28;20202;-92
2023/08/03 10:01:33;;;;;;;0.50;0.30;;;19.60;99.90;;;;;;4994149;28;20207;-90
2023/08/03 10:04:04;;;;;;;4.25;0.40;;;19.50;99.90;;;;;;4995678;28;20171;-90
2023/08/03 10:06:35;;;;;;;1.00;0.50;;;19.60;99.90;;;;;;4994583;28;20243;-96
2023/08/03 10:09:08;;;;;;;2.17;0.43;;;19.70;99.90;;;;;;4993925;28;20176;-92
2023/08/03 10:11:46;;;;;;;0.43;0.30;;;19.60;99.90;;;;;;5010891;28;20255;-86
2023/08/03 10:14:14;;;;;;;2.47;0.50;;;19.50;99.90;;;;;;4994386;28;20183;-93
2023/08/03 10:16:42;;;;;;;1.65;0.40;;;19.30;99.90;;;;;;4995227;28;20674;-89
2023/08/03 10:19:16;;;;;;;2.38;0.40;;;19.00;99.90;;;;;;4994144;28;20175;-91
2023/08/03 10:21:43;;;;;;;1.33;0.45;;;18.80;99.90;;;;;;4994163;28;20286;-87
2023/08/03 10:24:11;;;;;;;1.50;0.52;;;18.60;99.90;;;;;;5010516;28;20190;-91
2023/08/03 10:26:40;;;;;;;1.52;0.43;;;18.40;99.90;;;;;;4995697;28;20183;-94
2023/08/03 10:29:07;;;;;;;2.70;0.40;;;18.20;99.90;;;;;;4995945;28;20230;-93
2023/08/03 10:31:50;;;;;;;1.55;0.38;;;18.10;99.90;;;;;;4994119;28;20184;-93
2023/08/03 10:34:26;;;;;;;0.63;0.45;;;18.10;99.90;;;;;;4993727;28;20501;-94
2023/08/03 10:36:55;;;;;;;2.33;0.50;;;18.10;99.90;;;;;;4993874;28;20256;-90
2023/08/03 10:39:49;;;;;;;1.45;0.47;;;18.10;99.90;;;;;;4993818;28;20256;-91
2023/08/03 10:42:29;;;;;;;2.55;0.43;;;18.20;99.90;;;;;;4994039;28;20231;-90
2023/08/03 10:45:21;;;;;;;2.13;0.60;;;18.40;99.90;;;;;;4995332;28;20186;-94
2023/08/03 10:47:47;;;;;;;1.02;0.43;;;18.50;99.90;;;;;;4993622;28;20603;-90
2023/08/03 10:50:59;;;;;;;4.03;0.32;;;18.40;99.90;;;;;;4994362;28;20231;-91
2023/08/03 10:53:24;;;;;;;0.28;0.28;;;18.40;99.90;;;;;;4995374;28;20180;-89
2023/08/03 10:56:02;;;;;;;0.20;0.20;;;18.30;99.90;;;;;;4995522;28;20622;-90
2023/08/03 10:58:29;;;;;;;0.85;0.30;;;18.30;99.90;;;;;;5001308;28;20226;-89
2023/08/03 11:01:01;;;;;;;0.65;0.40;;;18.40;99.90;;;;;;5013085;28;20182;-90
2023/08/03 11:03:37;;;;;;;0.20;0.20;;;18.50;99.90;;;;;;5013742;28;20178;-91
2023/08/03 11:06:04;;;;;;;0.75;0.30;;;18.60;99.90;;;;;;5013658;28;20175;-89
2023/08/03 11:08:29;;;;;;;1.25;0.40;;;18.60;99.90;;;;;;5013382;28;20506;-91
2023/08/03 11:10:59;;;;;;;1.42;0.35;;;18.50;99.90;;;;;;5013424;28;20179;-92
2023/08/03 11:13:26;;;;;;;0.65;0.30;;;18.30;99.90;;;;;;5013311;28;20176;-92
2023/08/03 11:15:53;;;;;;;0.43;0.25;;;18.30;99.90;;;;;;5014020;28;20179;-91
2023/08/03 11:18:18;;;;;;;0.30;0.30;;;18.30;99.90;;;;;;5013258;28;20175;-89
2023/08/03 11:20:44;;;;;;;1.77;0.20;;;18.50;99.90;;;;;;5015392;28;20198;-90
2023/08/03 11:23:13;;;;;;;2.03;0.50;;;18.60;99.90;;;;;;5033494;28;20586;-90
2023/08/03 11:25:40;;;;;;;2.58;0.40;;;18.80;99.90;;;;;;5016860;28;20203;-90
2023/08/03 11:28:06;;;;;;;0.90;0.40;;;19.00;99.90;;;;;;5017022;28;20179;-86
2023/08/03 11:30:47;;;;;;;0.68;0.40;;;19.20;99.90;;;;;;5033093;28;20797;-88
2023/08/03 11:33:13;;;;;;;0.25;0.20;;;19.20;99.90;;;;;;5016725;28;20178;-87
2023/08/03 11:35:39;;;;;;;1.10;0.30;;;19.10;99.90;;;;;;5033206;28;20233;-91
2023/08/03 11:38:08;;;;;;;2.13;0.40;;;19.10;99.90;;;;;;5017870;28;20171;-93
2023/08/03 11:40:41;;;;;;;1.52;0.20;;;18.90;99.90;;;;;;5016610;28;20202;-88
2023/08/03 11:43:07;;;;;;;0.60;0.30;;;18.80;99.90;;;;;;5016277;28;20281;-89
2023/08/03 11:45:35;;;;;;;2.15;0.30;;;18.70;99.90;;;;;;5017387;28;20175;-90
2023/08/03 11:48:00;;;;;;;0.98;0.30;;;18.60;99.90;;;;;;5017537;28;20622;-87
2023/08/03 11:50:32;;;;;;;0.77;0.30;;;18.60;99.90;;;;;;5016552;28;20179;-91
2023/08/03 11:52:59;;;;;;;1.27;0.38;;;18.60;99.90;;;;;;5016302;28;20190;-93
2023/08/03 11:55:31;;;;;;;1.95;0.40;;;18.60;99.90;;;;;;5016420;28;20186;-89
2023/08/03 11:58:10;;;;;;;1.05;0.28;;;18.50;99.90;;;;;;5017296;28;20618;-91
2023/08/03 12:00:43;;;;;;;1.85;0.50;;;18.60;99.90;;;;;;5016115;28;20168;-90
2023/08/03 12:03:09;;;;;;;0.35;0.22;;;18.80;99.90;;;;;;5033176;28;20207;-92
2023/08/03 12:05:46;;;;;;;0.40;0.20;;;18.90;99.90;;;;;;5016557;28;20178;-92
2023/08/03 12:08:15;;;;;;;0.65;0.40;;;19.10;99.90;;;;;;5033030;28;20337;-93
2023/08/03 12:10:55;;;;;;;1.20;0.50;;;19.20;99.90;;;;;;5017523;28;20287;-92
2023/08/03 12:13:21;;;;;;;1.25;0.30;;;19.20;99.90;;;;;;5015899;28;20250;-92
2023/08/03 12:15:47;;;;;;;0.25;0.20;;;19.30;99.90;;;;;;5016796;28;20262;-89
2023/08/03 12:18:12;;;;;;;2.55;0.30;;;19.40;99.90;;;;;;5017104;28;20262;-91
2023/08/03 12:20:49;;;;;;;0.60;0.43;;;19.60;99.90;;;;;;5016882;28;20178;-94
2023/08/03 12:23:16;;;;;;;2.50;0.47;;;19.70;99.90;;;;;;5015924;28;20214;-92
2023/08/03 12:25:42;;;;;;;0.80;0.40;;;19.90;99.90;;;;;;5015762;28;20183;-93
2023/08/03 12:28:08;;;;;;;1.55;0.60;;;19.80;99.90;;;;;;5015726;28;20187;-90
2023/08/03 12:30:41;;;;;;;1.27;0.40;;;19.70;99.90;;;;;;5015543;28;20175;-92
2023/08/03 12:33:08;;;;;;;0.47;0.40;;;19.60;99.90;;;;;;5014944;28;20187;-91
2023/08/03 12:35:35;;;;;;;1.55;0.50;;;19.50;99.90;;;;;;5015497;28;20686;-91
2023/08/03 12:38:00;;;;;;;0.40;0.32;;;19.60;99.90;;;;;;5015850;28;20229;-92
2023/08/03 12:40:31;;;;;;;1.58;0.60;;;19.60;99.90;;;;;;5015607;28;20183;-92
2023/08/03 12:42:57;;;;;;;0.95;0.55;;;19.60;99.90;;;;;;5015483;28;20238;-95
2023/08/03 12:45:24;;;;;;;2.42;0.50;;;19.40;99.90;;;;;;5016941;28;20190;-94
2023/08/03 12:47:49;;;;;;;0.65;0.50;;;19.20;99.90;;;;;;5017382;28;20190;-93
2023/08/03 12:50:15;;;;;;;0.65;0.45;;;19.00;99.90;;;;;;5014140;28;20175;-94
2023/08/03 12:52:46;;;;;;;1.50;0.50;;;18.90;99.90;;;;;;4980783;28;20197;-93
2023/08/03 12:55:12;;;;;;;3.05;0.70;;;18.70;99.90;;;;;;4996328;28;20614;-92